Time;durP1;ratioP1;P1;durP2;ratioP2;P2;SDS_P1;SDS_P2;PMS_P1;PMS_P2;Temp;Humidity;BMP_temperature;BMP_pressure;BME280_temperature;BME280_humidity;BME280_pressure;Samples;Min_cycle;Max_cycle;Signal;HPM_P1;HPM_P2
2021/06/27 00:00:38;;;;;;;22.40;16.63;;;19.10;81.80;;;19.06;71.42;100674.88;4992178;28;20046;-82
2021/06/27 00:03:06;;;;;;;23.38;16.77;;;19.10;81.70;;;19.00;71.52;100667.56;4992212;28;20057;-82
2021/06/27 00:05:36;;;;;;;18.58;14.88;;;19.10;81.80;;;18.95;71.71;100673.75;4991802;28;20789;-82
2021/06/27 00:08:05;;;;;;;20.50;15.65;;;19.00;81.90;;;18.95;71.78;100668.25;4991778;28;20128;-82
2021/06/27 00:10:37;;;;;;;23.33;15.77;;;19.00;82.10;;;18.93;71.63;100675.09;4991552;28;20089;-82
2021/06/27 00:13:06;;;;;;;18.60;14.43;;;19.00;82.10;;;18.91;71.80;100677.25;4991895;28;20050;-82
2021/06/27 00:15:37;;;;;;;19.73;15.05;;;19.00;82.10;;;18.91;71.68;100666.22;4991841;28;20352;-82
2021/06/27 00:18:05;;;;;;;;;;;19.00;82.40;;;18.90;71.80;100665.34;4992147;28;20141;-82
2021/06/27 00:20:37;;;;;;;20.20;14.15;;;18.90;82.20;;;18.88;71.76;100661.16;4991684;28;19922;-82
2021/06/27 00:23:04;;;;;;;18.65;14.77;;;18.90;82.20;;;18.88;71.87;100666.69;4989063;28;20537;-82
2021/06/27 00:25:35;;;;;;;18.70;14.48;;;18.90;82.30;;;18.84;71.92;100670.97;4991892;28;20475;-82
2021/06/27 00:28:04;;;;;;;22.05;14.77;;;18.90;82.40;;;18.81;72.14;100660.41;4991547;28;20054;-82
2021/06/27 00:30:33;;;;;;;19.40;14.77;;;18.90;82.60;;;18.80;72.42;100658.72;4992149;28;20034;-82
2021/06/27 00:33:01;;;;;;;17.38;14.07;;;18.80;82.80;;;18.78;72.42;100658.94;4991899;28;20104;-83
2021/06/27 00:35:29;;;;;;;19.58;15.43;;;18.80;83.00;;;18.78;72.54;100660.88;4991554;28;20050;-82
2021/06/27 00:37:57;;;;;;;20.20;14.25;;;18.80;83.20;;;18.74;72.75;100660.50;4991657;28;20046;-82
2021/06/27 00:40:29;;;;;;;18.77;14.68;;;18.80;83.40;;;18.75;72.54;100660.28;4991613;28;20487;-82
2021/06/27 00:42:58;;;;;;;19.00;14.15;;;18.80;83.20;;;18.71;72.69;100655.44;4990602;28;20054;-82
2021/06/27 00:45:29;;;;;;;18.85;13.73;;;18.70;83.20;;;18.72;72.68;100657.97;4991612;28;20047;-82
2021/06/27 00:47:58;;;;;;;19.63;14.10;;;18.70;83.20;;;18.69;72.63;100663.94;4991135;28;20088;-82
2021/06/27 00:50:29;;;;;;;19.40;14.73;;;18.70;83.20;;;18.67;72.83;100655.06;4991395;28;20141;-82
2021/06/27 00:52:57;;;;;;;;;;;18.70;83.30;;;18.67;72.84;100660.59;4991915;28;20046;-82
2021/06/27 00:55:25;;;;;;;17.35;13.93;;;18.70;83.60;;;18.66;72.74;100653.41;4991441;28;19972;-82
2021/06/27 00:57:54;;;;;;;19.00;14.40;;;18.70;83.80;;;18.65;73.04;100656.38;4990850;28;20113;-82
2021/06/27 01:00:26;;;;;;;19.73;14.25;;;18.60;83.60;;;18.63;72.94;100653.88;4991237;28;20407;-83
2021/06/27 01:02:54;;;;;;;16.58;13.35;;;18.60;83.60;;;18.61;73.15;100653.25;4991191;28;20104;-82
2021/06/27 01:05:25;;;;;;;19.83;14.18;;;18.60;83.90;;;18.60;72.97;100654.34;4991347;28;20046;-82
2021/06/27 01:07:53;;;;;;;19.27;14.27;;;18.60;83.90;;;18.59;73.21;100652.66;4990888;28;20096;-82
2021/06/27 01:10:21;;;;;;;19.60;15.30;;;18.60;84.10;;;18.59;73.00;100649.91;4990707;28;20042;-82
2021/06/27 01:12:48;;;;;;;19.58;14.43;;;18.50;84.10;;;18.57;73.21;100649.28;4991293;28;20070;-82
2021/06/27 01:15:17;;;;;;;17.73;13.88;;;18.50;84.00;;;18.51;73.10;100650.25;4990842;28;20054;-82
2021/06/27 01:17:48;;;;;;;21.00;15.00;;;18.50;84.10;;;18.46;73.48;100652.84;4990802;28;20145;-82
2021/06/27 01:20:18;;;;;;;18.00;14.10;;;18.40;84.00;;;18.43;73.06;100653.31;4976339;28;20531;-82
2021/06/27 01:22:48;;;;;;;18.85;14.35;;;18.40;84.00;;;18.45;73.24;100651.16;4971553;28;20134;-82
2021/06/27 01:25:18;;;;;;;20.15;14.77;;;18.40;84.20;;;18.43;73.02;100654.16;4971329;28;20114;-83
2021/06/27 01:27:46;;;;;;;22.50;15.20;;;18.40;84.20;;;18.43;73.16;100648.66;4988115;23;20093;-79
2021/06/27 01:30:15;;;;;;;16.35;13.60;;;18.40;84.30;;;18.43;73.29;100650.53;4990506;28;20042;-78
2021/06/27 01:32:45;;;;;;;19.00;14.75;;;18.40;84.20;;;18.42;73.31;100646.13;4990359;28;20071;-79
2021/06/27 01:35:16;;;;;;;19.25;14.68;;;18.40;84.30;;;18.40;73.42;100651.03;4990934;28;20443;-79
2021/06/27 01:37:47;;;;;;;19.13;14.73;;;18.40;84.40;;;18.37;73.51;100649.56;4990033;28;20128;-79
2021/06/27 01:40:17;;;;;;;20.75;14.63;;;18.30;84.50;;;18.36;73.53;100648.72;4990400;28;20096;-79
2021/06/27 01:42:46;;;;;;;18.80;13.75;;;18.30;84.50;;;18.37;73.23;100644.06;4990640;28;20558;-79
2021/06/27 01:45:18;;;;;;;19.05;13.75;;;18.30;84.50;;;18.34;73.36;100645.38;4990317;28;20130;-79
2021/06/27 01:47:55;;;;;;;18.83;14.73;;;18.30;84.60;;;18.32;73.78;100653.03;4990059;28;20108;-79
2021/06/27 01:50:23;;;;;;;19.08;14.75;;;18.30;84.70;;;18.28;74.02;100649.06;4990040;28;20046;-79
2021/06/27 01:52:53;;;;;;;18.98;14.73;;;18.30;84.90;;;18.26;74.03;100653.97;4990146;28;20132;-79
2021/06/27 01:55:21;;;;;;;18.05;14.18;;;18.20;84.90;;;18.24;74.13;100649.75;4990121;28;20455;-79
2021/06/27 01:57:50;;;;;;;20.00;14.43;;;18.20;85.00;;;18.22;74.19;100652.75;4989739;28;20073;-79
2021/06/27 02:00:18;;;;;;;20.30;14.40;;;18.20;85.20;;;18.18;74.30;100651.50;4990021;28;20070;-79
2021/06/27 02:02:46;;;;;;;22.02;14.27;;;18.20;85.30;;;18.17;74.19;100655.34;4989620;28;20058;-79
2021/06/27 02:05:13;;;;;;;17.33;13.70;;;18.10;85.30;;;18.12;74.35;100646.94;4990310;28;20100;-79
2021/06/27 02:07:41;;;;;;;18.70;14.18;;;18.10;85.20;;;18.12;74.30;100653.28;4988670;28;20070;-79
2021/06/27 02:10:14;;;;;;;24.30;14.85;;;18.10;85.30;;;18.12;74.29;100646.94;4990158;28;20581;-78
2021/06/27 02:12:42;;;;;;;19.42;14.55;;;18.10;85.30;;;18.08;74.34;100652.06;4990014;28;20156;-78
2021/06/27 02:15:12;;;;;;;19.75;14.50;;;18.00;85.30;;;18.05;74.47;100646.16;4989768;28;20096;-79
2021/06/27 02:17:48;;;;;;;20.05;15.13;;;18.00;85.40;;;18.06;74.44;100643.19;4989439;28;20073;-79
2021/06/27 02:20:17;;;;;;;20.38;14.77;;;18.00;85.40;;;18.07;74.33;100644.06;4989583;28;20499;-79
2021/06/27 02:22:45;;;;;;;19.08;14.82;;;18.00;85.50;;;18.06;74.34;100653.38;4989752;28;20046;-78
2021/06/27 02:25:14;;;;;;;17.38;14.15;;;18.00;85.60;;;18.04;74.40;100655.53;4989371;28;20129;-79
2021/06/27 02:27:42;;;;;;;18.58;14.43;;;18.00;85.60;;;18.03;74.64;100648.31;4989138;28;20753;-78
2021/06/27 02:30:13;;;;;;;19.02;14.38;;;18.00;85.70;;;18.03;74.53;100653.81;4989457;28;20116;-79
2021/06/27 02:32:40;;;;;;;19.55;14.80;;;17.90;85.90;;;17.98;74.21;100647.09;4987909;28;20520;-79
2021/06/27 02:35:10;;;;;;;20.65;14.50;;;17.90;85.60;;;17.95;74.42;100646.72;4989565;28;20058;-79
2021/06/27 02:37:38;;;;;;;19.50;14.65;;;17.90;85.80;;;17.95;74.27;100653.09;4988928;28;20133;-78
2021/06/27 02:40:09;;;;;;;18.42;13.77;;;17.80;85.80;;;17.93;74.43;100644.22;4989439;28;20101;-78
2021/06/27 02:42:38;;;;;;;18.17;14.10;;;17.80;85.90;;;17.94;74.35;100639.53;4989217;28;20070;-79
2021/06/27 02:45:07;;;;;;;18.70;14.38;;;17.80;85.90;;;17.92;74.38;100642.53;4989169;28;20046;-79
2021/06/27 02:47:36;;;;;;;19.77;14.02;;;17.80;85.90;;;17.88;74.42;100644.06;4987640;28;20070;-79
2021/06/27 02:50:06;;;;;;;18.83;13.98;;;17.80;85.90;;;17.88;74.53;100649.56;4989348;28;20132;-79
2021/06/27 02:52:34;;;;;;;21.67;14.05;;;17.80;86.10;;;17.88;74.72;100638.53;4989385;28;20094;-79
2021/06/27 02:55:01;;;;;;;18.83;14.85;;;17.80;86.20;;;17.87;74.79;100647.03;4989132;28;20105;-79
2021/06/27 02:57:28;;;;;;;18.88;13.48;;;17.80;86.20;;;17.82;75.12;100646.84;4988948;28;20046;-78
2021/06/27 02:59:57;;;;;;;17.77;13.43;;;17.80;86.30;;;17.82;74.65;100641.34;4986709;28;20070;-79
2021/06/27 03:02:24;;;;;;;19.83;14.20;;;17.70;86.20;;;17.84;74.70;100630.94;4989114;28;20043;-79
2021/06/27 03:04:51;;;;;;;21.08;14.65;;;17.70;86.40;;;17.80;74.82;100627.81;4988908;28;20569;-79
2021/06/27 03:07:19;;;;;;;21.23;14.77;;;17.70;86.30;;;17.83;74.79;100630.09;4988644;28;20081;-79
2021/06/27 03:09:46;;;;;;;18.08;14.00;;;17.70;86.40;;;17.79;74.87;100631.63;4989030;28;20703;-78
2021/06/27 03:12:14;;;;;;;18.42;14.18;;;17.70;86.40;;;17.76;74.89;100629.31;4988915;28;20046;-79
2021/06/27 03:14:41;;;;;;;17.33;13.40;;;17.70;86.40;;;17.72;74.87;100628.09;4989077;28;20046;-79
2021/06/27 03:17:09;;;;;;;19.63;14.07;;;17.70;86.40;;;17.75;74.93;100617.47;4988506;28;20399;-78
2021/06/27 03:19:37;;;;;;;19.42;13.90;;;17.70;86.50;;;17.75;74.70;100617.47;4989144;28;20100;-78
2021/06/27 03:22:04;;;;;;;19.75;14.23;;;17.70;86.40;;;17.69;75.09;100625.84;4988753;28;20463;-78
2021/06/27 03:24:32;;;;;;;19.00;14.00;;;17.60;86.30;;;17.68;75.35;100618.63;4987504;28;20054;-79
2021/06/27 03:26:59;;;;;;;18.23;14.05;;;17.60;86.50;;;17.67;75.41;100608.69;4988633;28;20136;-78
2021/06/27 03:29:26;;;;;;;17.63;13.70;;;17.60;86.80;;;17.69;75.34;100609.31;4988221;28;20152;-78
2021/06/27 03:31:53;;;;;;;17.95;14.05;;;17.60;86.50;;;17.63;75.60;100602.81;4988715;28;20070;-79
2021/06/27 03:34:22;;;;;;;18.67;13.80;;;17.60;86.70;;;17.60;75.71;100603.25;4987897;28;20046;-78
2021/06/27 03:36:50;;;;;;;21.20;14.55;;;17.60;86.70;;;17.64;75.45;100614.66;4988692;28;20066;-78
2021/06/27 03:39:19;;;;;;;17.98;13.63;;;17.60;86.70;;;17.62;75.56;100603.88;4988701;28;20054;-78
2021/06/27 03:41:50;;;;;;;20.40;15.20;;;17.60;86.60;;;17.66;75.44;100618.03;4988600;28;20042;-79
2021/06/27 03:44:17;;;;;;;;;;;17.60;86.70;;;17.63;75.49;100616.56;4989436;28;20047;-79
2021/06/27 03:46:44;;;;;;;19.50;14.18;;;17.60;86.70;;;17.59;75.73;100609.81;4988092;28;19949;-78
2021/06/27 03:49:12;;;;;;;16.90;13.13;;;17.60;86.80;;;17.58;75.86;100609.00;4988482;28;20141;-78
2021/06/27 03:51:41;;;;;;;21.17;14.32;;;17.60;87.10;;;17.61;76.12;100612.34;4988697;28;20038;-79
2021/06/27 03:54:09;;;;;;;20.05;14.13;;;17.70;87.30;;;17.59;76.68;100618.94;4988888;28;20459;-79
2021/06/27 03:56:36;;;;;;;18.58;14.70;;;17.70;87.30;;;17.61;76.40;100610.47;4987005;28;20609;-78
2021/06/27 03:59:03;;;;;;;17.00;13.52;;;17.70;87.20;;;17.62;76.46;100616.81;4991822;28;20043;-79
2021/06/27 04:01:31;;;;;;;20.27;13.95;;;17.70;87.30;;;17.60;76.67;100617.03;4992151;28;20041;-79
2021/06/27 04:04:00;;;;;;;18.05;13.68;;;17.80;87.30;;;17.64;76.49;100614.66;4992147;28;20125;-78
2021/06/27 04:06:27;;;;;;;20.00;14.05;;;17.80;87.40;;;17.65;76.83;100619.06;4991799;28;20146;-79
2021/06/27 04:08:56;;;;;;;19.77;13.40;;;17.80;87.60;;;17.70;77.15;100613.72;4991982;28;20153;-78
2021/06/27 04:11:23;;;;;;;16.70;13.32;;;17.90;87.70;;;17.67;77.57;100611.44;4991857;28;20121;-78
2021/06/27 04:13:50;;;;;;;19.17;13.25;;;17.90;87.70;;;17.70;77.57;100624.75;4992233;28;20121;-78
2021/06/27 04:16:18;;;;;;;17.58;14.07;;;18.00;87.80;;;17.72;78.08;100617.09;4991360;28;20781;-78
2021/06/27 04:18:45;;;;;;;17.50;13.27;;;18.00;87.80;;;17.75;77.79;100625.75;4992358;28;20500;-80
2021/06/27 04:21:12;;;;;;;18.40;13.52;;;18.10;87.70;;;17.80;77.71;100627.81;4990290;28;20157;-80
2021/06/27 04:23:41;;;;;;;17.67;13.23;;;18.30;87.70;;;17.84;78.18;100623.56;4992046;28;20085;-80
2021/06/27 04:26:10;;;;;;;18.35;13.77;;;18.40;87.40;;;17.89;78.06;100612.69;4990461;28;20105;-80
2021/06/27 04:28:37;;;;;;;18.73;13.82;;;18.50;86.90;;;17.96;77.62;100609.84;4991387;28;20050;-80
2021/06/27 04:31:05;;;;;;;19.27;14.18;;;18.70;86.30;;;18.02;77.83;100608.09;4991671;28;20035;-80
2021/06/27 04:33:32;;;;;;;18.95;14.18;;;18.90;85.20;;;18.06;77.65;100603.81;4991656;28;20042;-80
2021/06/27 04:35:59;;;;;;;19.15;13.23;;;19.00;84.60;;;18.13;77.30;100579.78;4991388;28;20074;-80
2021/06/27 04:38:27;;;;;;;21.63;13.85;;;19.20;83.90;;;18.20;77.10;100588.78;4989814;28;20450;-81
2021/06/27 04:40:56;;;;;;;18.77;13.30;;;19.40;83.50;;;18.27;77.16;100585.91;4990462;28;20046;-81
2021/06/27 04:43:25;;;;;;;18.98;13.15;;;19.60;82.80;;;18.30;77.07;100583.53;4991427;28;20758;-81
2021/06/27 04:45:53;;;;;;;18.35;13.15;;;19.80;81.50;;;18.37;76.61;100588.94;4991076;28;20672;-80
2021/06/27 04:48:20;;;;;;;19.55;12.90;;;19.80;81.20;;;18.40;76.71;100596.75;4991278;28;20038;-80
2021/06/27 04:50:48;;;;;;;18.67;13.30;;;19.80;81.00;;;18.43;76.59;100599.06;4990920;28;20044;-80
2021/06/27 04:53:16;;;;;;;20.73;13.90;;;19.80;81.10;;;18.47;76.28;100594.75;4991293;28;20105;-80
2021/06/27 04:55:44;;;;;;;17.42;13.07;;;19.80;81.20;;;18.51;76.15;100598.69;4991210;28;20042;-80
2021/06/27 04:58:12;;;;;;;18.02;12.82;;;19.80;80.90;;;18.55;76.34;100590.81;4990775;28;20042;-80
2021/06/27 05:00:41;;;;;;;16.92;12.52;;;19.80;81.00;;;18.54;76.69;100589.13;4991213;28;20487;-81
2021/06/27 05:03:08;;;;;;;17.63;13.23;;;19.80;81.60;;;18.57;76.32;100583.13;4990983;28;20057;-80
2021/06/27 05:05:36;;;;;;;18.25;12.30;;;19.80;81.50;;;18.61;76.18;100578.00;4991138;28;20085;-80
2021/06/27 05:08:04;;;;;;;17.65;12.88;;;19.80;81.00;;;18.62;75.94;100580.53;4990274;28;20428;-80
2021/06/27 05:10:31;;;;;;;16.63;12.68;;;19.90;81.10;;;18.65;76.08;100569.00;4990888;28;20038;-80
2021/06/27 05:12:59;;;;;;;15.77;12.27;;;19.90;81.00;;;18.65;75.99;100571.75;4990923;28;20499;-80
2021/06/27 05:15:26;;;;;;;23.38;12.68;;;19.90;81.00;;;18.67;76.02;100569.59;4990815;28;20042;-80
2021/06/27 05:17:55;;;;;;;16.15;12.65;;;19.90;81.30;;;18.68;76.47;100563.03;4990822;28;20046;-81
2021/06/27 05:20:22;;;;;;;18.27;13.15;;;19.90;81.30;;;18.72;76.00;100566.16;4990508;28;20042;-81
2021/06/27 05:22:50;;;;;;;17.27;12.68;;;20.00;81.10;;;18.74;75.85;100558.47;4990899;28;20126;-80
2021/06/27 05:25:17;;;;;;;18.17;12.77;;;20.00;80.80;;;18.74;76.29;100561.25;4990226;28;20046;-81
2021/06/27 05:27:44;;;;;;;16.75;12.45;;;20.00;80.80;;;18.76;76.36;100554.41;4990407;28;20042;-81
2021/06/27 05:30:13;;;;;;;17.80;13.30;;;20.10;81.00;;;18.79;76.13;100558.63;4990698;28;20093;-81
2021/06/27 05:32:40;;;;;;;17.02;13.35;;;20.20;80.50;;;18.83;75.93;100556.22;4990601;28;20101;-80
2021/06/27 05:35:10;;;;;;;17.08;13.18;;;20.30;80.10;;;18.87;75.67;100554.69;4990763;28;20070;-80
2021/06/27 05:37:37;;;;;;;17.42;12.70;;;20.30;79.60;;;18.90;75.25;100551.44;4989637;28;20050;-80
2021/06/27 05:40:06;;;;;;;17.13;12.80;;;20.40;78.70;;;18.93;75.31;100549.06;4990653;28;20104;-80
2021/06/27 05:42:34;;;;;;;17.17;12.57;;;20.50;78.80;;;18.98;75.49;100550.25;4990317;28;20074;-81
2021/06/27 05:45:01;;;;;;;19.85;13.05;;;20.60;78.80;;;19.01;75.09;100539.59;4990392;28;20042;-81
2021/06/27 05:47:28;;;;;;;17.02;12.85;;;20.70;78.30;;;19.06;74.92;100541.63;4989889;28;20048;-81
2021/06/27 05:49:55;;;;;;;18.50;12.93;;;20.80;77.70;;;19.09;74.52;100541.97;4989758;28;20093;-81
2021/06/27 05:52:24;;;;;;;16.30;12.35;;;20.90;77.10;;;19.14;74.80;100538.50;4990088;28;20046;-81
2021/06/27 05:54:51;;;;;;;18.38;12.43;;;21.00;77.00;;;19.23;74.79;100542.59;4989950;28;20073;-80
2021/06/27 05:57:19;;;;;;;21.40;12.50;;;21.30;76.80;;;19.35;74.62;100531.53;4988354;28;20541;-81
2021/06/27 05:59:47;;;;;;;18.20;11.63;;;22.50;73.00;;;19.49;74.71;100541.19;4988765;28;20093;-81
2021/06/27 06:02:15;;;;;;;17.20;11.82;;;24.10;68.10;;;19.67;73.79;100537.44;4989874;28;20053;-81
2021/06/27 06:04:42;;;;;;;19.70;12.43;;;25.30;62.70;;;19.89;73.26;100545.91;4990043;28;20117;-81
2021/06/27 06:07:10;;;;;;;17.75;11.45;;;26.30;58.70;;;20.09;72.14;100544.66;4989600;28;20535;-81
2021/06/27 06:09:38;;;;;;;16.48;10.98;;;27.50;55.30;;;20.30;71.04;100551.41;4989903;28;20038;-81
2021/06/27 06:12:07;;;;;;;14.63;11.15;;;28.40;51.90;;;20.51;70.72;100545.16;4989790;28;20049;-81
2021/06/27 06:14:34;;;;;;;16.08;11.60;;;29.20;49.90;;;20.76;69.64;100543.09;4989894;28;20100;-82
2021/06/27 06:17:01;;;;;;;13.60;10.43;;;29.80;47.40;;;20.97;68.68;100547.84;4988029;28;20054;-77
2021/06/27 06:19:29;;;;;;;13.95;10.98;;;30.30;45.90;;;21.18;68.12;100539.88;4987857;28;20046;-81
2021/06/27 06:21:56;;;;;;;13.95;10.20;;;31.00;45.00;;;21.39;67.35;100546.53;4989060;28;20053;-83
2021/06/27 06:24:24;;;;;;;14.70;10.23;;;31.30;43.80;;;21.59;66.35;100540.44;4987746;28;20054;-86
2021/06/27 06:26:53;;;;;;;15.52;10.05;;;31.80;41.80;;;21.75;65.82;100539.56;4989393;28;20054;-86
2021/06/27 06:29:20;;;;;;;12.13;9.65;;;32.30;40.10;;;21.90;65.73;100546.38;4989209;28;20074;-86
2021/06/27 06:31:47;;;;;;;14.57;9.98;;;32.50;39.60;;;22.00;65.67;100550.09;4989130;28;20490;-86
2021/06/27 06:34:14;;;;;;;13.68;9.75;;;32.70;39.20;;;22.08;65.76;100559.88;4987923;28;20519;-86
2021/06/27 06:36:43;;;;;;;14.40;10.07;;;32.90;38.60;;;22.12;65.90;100549.09;4988861;28;20049;-85
2021/06/27 06:39:11;;;;;;;14.25;9.77;;;33.00;38.20;;;22.14;65.13;100547.75;4989466;28;20097;-86
2021/06/27 06:41:38;;;;;;;12.65;9.80;;;31.90;39.00;;;22.16;64.76;100548.34;4989167;28;20108;-86
2021/06/27 06:44:07;;;;;;;15.10;9.30;;;30.40;42.60;;;22.16;65.66;100545.56;4987908;28;20101;-86
2021/06/27 06:46:34;;;;;;;13.35;9.68;;;29.20;46.70;;;22.15;64.89;100549.41;4987539;28;20419;-86
2021/06/27 06:49:02;;;;;;;11.55;9.00;;;28.40;48.70;;;22.13;65.05;100553.56;4989107;28;20078;-85
2021/06/27 06:51:29;;;;;;;12.38;9.48;;;27.70;50.30;;;22.11;64.63;100548.28;4988975;28;20038;-85
2021/06/27 06:53:57;;;;;;;11.77;9.13;;;27.20;52.20;;;22.09;64.61;100556.03;4988898;28;20415;-86
2021/06/27 06:56:24;;;;;;;13.57;9.18;;;26.90;52.90;;;22.09;65.03;100556.03;4988880;28;20050;-85
2021/06/27 06:58:52;;;;;;;12.23;8.95;;;26.60;54.40;;;22.06;65.04;100551.81;4988848;28;20533;-86
2021/06/27 07:01:36;;;;;;;13.30;9.65;;;26.30;55.00;;;22.03;65.37;100554.28;4989034;28;20061;-87
2021/06/27 07:04:06;;;;;;;12.40;9.20;;;26.00;56.70;;;21.96;64.86;100546.16;4987380;28;20109;-86
2021/06/27 07:06:34;;;;;;;13.50;9.63;;;25.60;56.80;;;21.94;65.05;100550.31;4988043;28;20124;-85
2021/06/27 07:09:01;;;;;;;12.38;8.77;;;25.40;57.60;;;21.92;65.04;100552.50;4988871;28;20292;-85
2021/06/27 07:11:31;;;;;;;11.77;9.27;;;25.20;58.40;;;21.88;64.95;100545.81;4987326;28;21921;-87
2021/06/27 07:13:58;;;;;;;11.73;9.25;;;25.10;59.10;;;21.87;65.37;100547.72;4988327;28;20109;-90
2021/06/27 07:16:27;;;;;;;15.80;8.77;;;25.10;59.70;;;21.89;65.96;100550.25;4989801;28;20038;-83
2021/06/27 07:18:54;;;;;;;12.07;8.95;;;25.20;59.90;;;21.89;65.76;100555.78;4986795;28;20129;-83
2021/06/27 07:21:22;;;;;;;13.55;9.32;;;25.10;59.80;;;21.89;65.95;100550.25;4988731;28;20042;-85
2021/06/27 07:23:49;;;;;;;14.75;9.45;;;25.00;59.80;;;21.94;67.49;100553.91;4987053;28;20074;-86
2021/06/27 07:26:16;;;;;;;12.07;8.93;;;25.00;61.60;;;21.95;66.04;100554.72;4988362;28;20046;-86
2021/06/27 07:28:44;;;;;;;15.20;8.73;;;25.00;61.00;;;22.01;67.12;100559.25;5007938;23;20050;-79
2021/06/27 07:31:12;;;;;;;13.55;8.90;;;25.10;61.50;;;21.97;66.22;100549.75;5000796;28;20092;-80
2021/06/27 07:33:40;;;;;;;11.80;8.90;;;24.90;60.80;;;21.99;67.25;100556.75;5011968;28;20046;-80
2021/06/27 07:36:08;;;;;;;11.85;8.70;;;24.90;61.90;;;22.02;67.45;100560.91;5011592;28;20042;-80
2021/06/27 07:38:36;;;;;;;14.70;8.60;;;24.90;62.40;;;22.05;67.49;100566.78;5002748;28;20046;-78
2021/06/27 07:41:04;;;;;;;11.35;8.43;;;25.00;62.70;;;22.05;66.54;100557.63;4992004;28;20073;-79
2021/06/27 07:43:32;;;;;;;11.75;8.65;;;25.00;61.60;;;22.10;66.53;100563.22;4992214;28;20510;-79
2021/06/27 07:46:00;;;;;;;11.52;8.50;;;25.10;61.70;;;22.18;66.80;100559.13;4991766;28;20070;-79
2021/06/27 07:48:27;;;;;;;12.60;8.40;;;25.20;61.40;;;22.23;67.19;100548.13;4992229;28;20050;-82
2021/06/27 07:50:56;;;;;;;12.98;8.85;;;25.30;61.80;;;22.25;67.49;100549.56;4992072;28;20152;-82
2021/06/27 07:53:24;;;;;;;11.88;8.65;;;25.30;62.00;;;22.27;66.30;100545.69;4991944;28;20482;-82
2021/06/27 07:55:51;;;;;;;10.82;8.85;;;25.30;60.00;;;22.28;67.45;100547.38;4989697;28;20702;-82
2021/06/27 07:58:18;;;;;;;10.55;8.50;;;25.30;61.70;;;22.38;67.89;100539.16;4991533;28;20123;-80
2021/06/27 08:00:46;;;;;;;13.23;8.98;;;25.50;62.00;;;22.47;69.25;100534.81;4991880;28;20380;-80
2021/06/27 08:03:14;;;;;;;11.32;8.02;;;25.70;62.60;;;22.52;66.82;100537.59;4991545;28;20739;-81
2021/06/27 08:05:41;;;;;;;11.13;8.40;;;25.80;60.30;;;22.49;65.45;100538.16;4991748;28;20525;-81
2021/06/27 08:08:10;;;;;;;12.60;8.48;;;25.90;59.10;;;22.54;68.13;100537.34;4990696;28;20070;-81
2021/06/27 08:10:37;;;;;;;11.90;8.32;;;25.90;61.10;;;22.55;66.58;100537.09;4991576;28;20070;-80
2021/06/27 08:13:05;;;;;;;10.15;7.90;;;25.90;59.20;;;22.54;65.23;100535.44;4991279;28;20125;-80
2021/06/27 08:15:33;;;;;;;11.05;7.68;;;25.90;58.20;;;22.55;65.22;100539.03;4991388;28;20585;-79
2021/06/27 08:18:01;;;;;;;10.45;8.13;;;25.90;58.90;;;22.62;66.57;100543.25;4991064;28;20133;-83
2021/06/27 08:20:29;;;;;;;11.63;8.35;;;25.90;59.90;;;22.63;67.49;100546.84;4991527;28;20043;-83
2021/06/27 08:22:57;;;;;;;12.80;8.70;;;25.90;60.10;;;22.74;67.59;100550.56;4991568;28;20085;-83
2021/06/27 08:25:26;;;;;;;10.60;8.15;;;26.00;61.50;;;22.79;65.94;100551.44;4974008;28;20043;-83
2021/06/27 08:27:53;;;;;;;9.68;8.23;;;26.00;60.20;;;22.80;67.77;100543.94;4973407;28;20404;-83
2021/06/27 08:30:23;;;;;;;9.43;7.53;;;26.00;61.00;;;22.85;65.90;100541.22;4991439;28;20066;-84
2021/06/27 08:32:53;;;;;;;13.95;8.35;;;26.00;60.40;;;22.82;65.67;100538.97;4991255;28;20042;-87
2021/06/27 08:35:22;;;;;;;11.18;8.00;;;25.90;59.40;;;22.76;65.28;100534.50;4981693;28;20061;-87
2021/06/27 08:37:52;;;;;;;10.13;8.48;;;25.90;59.40;;;22.84;67.04;100531.22;5009343;23;20054;-87
2021/06/27 08:40:21;;;;;;;10.57;8.45;;;25.90;60.60;;;22.86;65.67;100529.00;5010584;28;20066;-87
2021/06/27 08:42:51;;;;;;;12.02;8.52;;;25.90;59.40;;;22.94;66.29;100522.13;5010020;28;20092;-87
2021/06/27 08:45:20;;;;;;;10.32;8.15;;;25.90;61.00;;;22.94;64.93;100524.91;5010633;28;20046;-86
2021/06/27 08:47:51;;;;;;;9.93;7.90;;;25.90;58.50;;;22.93;63.99;100526.84;5008704;28;20049;-86
2021/06/27 08:50:18;;;;;;;10.35;8.35;;;25.90;57.90;;;22.89;63.34;100520.16;4990989;28;20498;-86
2021/06/27 08:52:47;;;;;;;9.30;7.75;;;25.90;58.10;;;22.94;65.70;100517.44;4986208;28;20121;-87
2021/06/27 08:55:16;;;;;;;15.85;8.50;;;25.90;60.10;;;23.03;65.97;100510.28;4971906;28;20487;-87
2021/06/27 08:57:43;;;;;;;10.85;8.55;;;26.00;61.00;;;23.10;65.36;100503.69;4985838;28;20085;-87
2021/06/27 09:00:14;;;;;;;12.88;8.55;;;26.00;60.80;;;23.03;64.67;100504.72;4986546;28;20097;-87
2021/06/27 09:02:41;;;;;;;12.38;8.07;;;26.00;59.20;;;22.99;64.93;100503.56;4985982;28;20061;-87
2021/06/27 09:05:10;;;;;;;11.70;7.70;;;25.90;59.70;;;22.97;63.84;100500.22;4986171;28;20105;-88
2021/06/27 09:07:39;;;;;;;11.07;8.43;;;25.90;58.60;;;22.95;63.17;100510.75;4970667;28;20066;-86
2021/06/27 09:10:10;;;;;;;11.23;8.07;;;25.80;58.70;;;22.95;63.12;100507.97;4986419;28;20054;-87
2021/06/27 09:12:49;;;;;;;10.35;8.30;;;25.80;59.00;;;22.98;63.63;100506.59;4990176;28;20034;-86
2021/06/27 09:15:40;;;;;;;11.48;8.07;;;25.80;59.50;;;23.00;62.50;100513.56;4990142;28;20051;-87
2021/06/27 09:18:10;;;;;;;10.65;7.88;;;25.70;58.80;;;22.97;62.63;100511.31;4990254;28;20426;-86
2021/06/27 09:20:39;;;;;;;10.27;8.32;;;25.70;58.70;;;22.98;62.66;100509.38;4988742;28;20042;-86
2021/06/27 09:23:07;;;;;;;10.93;8.30;;;25.70;59.10;;;23.02;63.09;100514.13;4988672;28;20410;-85
2021/06/27 09:25:36;;;;;;;10.90;7.93;;;25.70;59.40;;;23.01;62.39;100501.34;4973345;28;20043;-85
2021/06/27 09:28:13;;;;;;;10.55;8.13;;;25.70;59.00;;;23.05;62.87;100507.25;4980903;28;20045;-85
2021/06/27 09:30:47;;;;;;;9.02;7.72;;;25.70;59.40;;;23.07;63.51;100505.03;4981201;28;20038;-85
2021/06/27 09:33:16;;;;;;;15.05;8.60;;;25.70;59.90;;;23.10;64.83;100498.13;4989078;28;20042;-85
2021/06/27 09:35:51;;;;;;;9.43;7.90;;;25.70;61.00;;;23.08;63.92;100500.34;4973101;28;20468;-85
2021/06/27 09:38:36;;;;;;;10.05;7.90;;;25.70;59.30;;;23.03;62.57;100495.56;4970493;28;20050;-85
2021/06/27 09:41:07;;;;;;;10.25;7.75;;;25.80;58.70;;;23.06;62.74;100495.03;4987454;28;20062;-85
2021/06/27 09:43:37;;;;;;;10.45;7.72;;;25.70;59.20;;;23.02;62.87;100491.94;4972992;28;20050;-85
2021/06/27 09:46:12;;;;;;;14.88;8.10;;;25.70;58.80;;;23.14;64.16;100500.09;4970472;28;20049;-85
2021/06/27 09:48:55;;;;;;;10.45;7.45;;;25.70;60.70;;;23.16;62.67;100497.03;4970677;28;20073;-85
2021/06/27 09:51:25;;;;;;;10.75;8.40;;;25.80;59.10;;;23.21;62.37;100491.53;4970361;28;20047;-85
2021/06/27 09:53:53;;;;;;;11.90;7.90;;;25.80;59.40;;;23.21;62.70;100494.31;4985437;28;20094;-84
2021/06/27 09:56:23;;;;;;;9.93;8.25;;;25.70;59.60;;;23.22;65.00;100491.22;4973038;28;20081;-81
2021/06/27 09:59:06;;;;;;;10.30;7.82;;;25.70;61.00;;;23.18;61.86;100489.28;4983831;28;20051;-79
2021/06/27 10:01:38;;;;;;;9.90;7.93;;;25.70;58.80;;;23.20;62.39;100487.06;4970081;28;20046;-79
2021/06/27 10:04:08;;;;;;;10.18;7.55;;;25.70;59.20;;;23.17;61.05;100485.66;4985292;28;20049;-79
2021/06/27 10:06:47;;;;;;;9.77;7.50;;;25.70;58.20;;;23.17;60.83;100482.03;4970138;28;20118;-79
2021/06/27 10:09:18;;;;;;;9.63;7.68;;;25.70;57.90;;;23.17;61.82;100470.94;4970178;28;20141;-79